Time;durP1;ratioP1;P1;durP2;ratioP2;P2;SDS_P1;SDS_P2;PMS_P1;PMS_P2;Temp;Humidity;BMP_temperature;BMP_pressure;BME280_temperature;BME280_humidity;BME280_pressure;Samples;Min_cycle;Max_cycle;Signal;HPM_P1;HPM_P2
2024/01/05 00:01:09;;;;;;;7.17;1.80;;;7.90;99.90;;;;;;5055718;28;20525;-81
2024/01/05 00:03:36;;;;;;;8.47;2.07;;;8.00;99.90;;;;;;5053861;28;20550;-82
2024/01/05 00:06:02;;;;;;;5.97;2.23;;;8.00;99.90;;;;;;5060302;28;21009;-82
2024/01/05 00:08:29;;;;;;;9.20;2.43;;;8.00;99.90;;;;;;5053429;28;20518;-82
2024/01/05 00:10:56;;;;;;;6.90;2.40;;;8.00;99.90;;;;;;5059080;28;20545;-82
2024/01/05 00:13:23;;;;;;;8.90;2.40;;;8.00;99.90;;;;;;5052880;28;20507;-82
2024/01/05 00:15:50;;;;;;;8.97;3.00;;;8.00;99.90;;;;;;5058980;28;20953;-82
2024/01/05 00:18:18;;;;;;;6.70;2.40;;;8.10;99.90;;;;;;5050010;28;20507;-82
2024/01/05 00:20:45;;;;;;;7.50;2.37;;;8.10;99.90;;;;;;5061575;28;20458;-81
2024/01/05 00:23:11;;;;;;;6.33;2.13;;;8.10;99.90;;;;;;5057304;28;20467;-81
2024/01/05 00:25:38;;;;;;;5.97;1.60;;;8.10;99.90;;;;;;5061311;28;20887;-82
2024/01/05 00:28:06;;;;;;;6.87;1.83;;;8.10;99.90;;;;;;5058668;28;20512;-82
2024/01/05 00:30:34;;;;;;;3.73;1.87;;;8.20;99.90;;;;;;5059976;28;20481;-81
2024/01/05 00:33:01;;;;;;;6.20;2.07;;;8.20;99.90;;;;;;5061751;28;20541;-82
2024/01/05 00:35:32;;;;;;;11.30;2.60;;;8.20;99.90;;;;;;5061571;28;20464;-81
2024/01/05 00:37:59;;;;;;;8.27;2.80;;;8.10;99.90;;;;;;5059862;28;20490;-81
2024/01/05 00:40:26;;;;;;;6.40;2.50;;;8.10;99.90;;;;;;5060644;28;20513;-82
2024/01/05 00:42:53;;;;;;;5.90;2.03;;;8.10;99.90;;;;;;5061219;28;20567;-82
2024/01/05 00:45:20;;;;;;;5.27;2.10;;;8.10;99.90;;;;;;5059584;28;20522;-82
2024/01/05 00:47:47;;;;;;;5.77;2.73;;;8.10;99.90;;;;;;5062363;28;20449;-82
2024/01/05 00:50:14;;;;;;;11.60;2.57;;;8.10;99.90;;;;;;5058678;28;20493;-82
2024/01/05 00:52:42;;;;;;;11.83;2.97;;;8.10;99.90;;;;;;5062687;28;20576;-83
2024/01/05 00:55:09;;;;;;;7.90;2.20;;;8.10;99.90;;;;;;5062734;28;20473;-82
2024/01/05 00:57:36;;;;;;;9.57;2.20;;;8.00;99.90;;;;;;5063107;28;20575;-82
2024/01/05 01:00:04;;;;;;;4.80;2.10;;;8.00;99.90;;;;;;5059301;28;20526;-82
2024/01/05 01:02:30;;;;;;;6.70;2.10;;;8.00;99.90;;;;;;5061682;28;20540;-82
2024/01/05 01:04:59;;;;;;;7.37;2.50;;;7.90;99.90;;;;;;5059723;28;20500;-82
2024/01/05 01:07:26;;;;;;;10.70;3.20;;;8.00;99.90;;;;;;5062700;28;20456;-82
2024/01/05 01:09:54;;;;;;;7.03;1.93;;;8.00;99.90;;;;;;5058808;28;20885;-83
2024/01/05 01:12:21;;;;;;;8.97;2.83;;;8.20;99.90;;;;;;5061019;28;20505;-82
2024/01/05 01:14:48;;;;;;;12.83;2.50;;;8.10;99.90;;;;;;5058481;28;20476;-81
2024/01/05 01:17:14;;;;;;;10.97;2.40;;;8.10;99.90;;;;;;5060179;28;20557;-82
2024/01/05 01:19:41;;;;;;;11.20;2.33;;;8.10;99.90;;;;;;5060506;28;20477;-80
2024/01/05 01:22:08;;;;;;;6.27;2.40;;;8.20;99.90;;;;;;5066877;28;20502;-78
2024/01/05 01:24:35;;;;;;;5.93;2.57;;;8.20;99.90;;;;;;5067028;28;20445;-80
2024/01/05 01:27:03;;;;;;;10.10;2.60;;;8.20;99.90;;;;;;5062179;28;20466;-81
2024/01/05 01:29:30;;;;;;;9.67;2.53;;;8.20;99.90;;;;;;5055994;28;20474;-79
2024/01/05 01:31:57;;;;;;;8.17;2.30;;;8.10;99.90;;;;;;5063831;28;20498;-81
2024/01/05 01:34:26;;;;;;;9.90;2.87;;;8.10;99.90;;;;;;5064161;28;20442;-79
2024/01/05 01:36:54;;;;;;;11.50;2.13;;;8.00;99.90;;;;;;5063293;28;20481;-81
2024/01/05 01:39:20;;;;;;;9.80;2.40;;;8.00;99.90;;;;;;5064723;28;20473;-82
2024/01/05 01:41:47;;;;;;;5.50;1.83;;;8.00;99.90;;;;;;5063701;28;20551;-82
2024/01/05 01:44:15;;;;;;;8.97;2.20;;;7.90;99.90;;;;;;5063065;28;20496;-81
2024/01/05 01:46:43;;;;;;;10.20;2.23;;;7.90;99.90;;;;;;5055533;28;20526;-82
2024/01/05 01:49:10;;;;;;;10.97;1.90;;;7.80;99.90;;;;;;5061862;28;20448;-81
2024/01/05 01:51:37;;;;;;;8.53;2.67;;;7.70;99.90;;;;;;5062423;28;20520;-81
2024/01/05 01:54:06;;;;;;;7.60;2.23;;;7.60;99.90;;;;;;5062476;28;20465;-82
2024/01/05 01:56:35;;;;;;;10.03;3.07;;;7.70;99.90;;;;;;5062840;28;20467;-81
2024/01/05 01:59:02;;;;;;;9.57;2.30;;;7.60;99.90;;;;;;5063399;28;20535;-80
2024/01/05 02:01:31;;;;;;;13.13;3.70;;;7.50;99.90;;;;;;5062315;28;20993;-81
2024/01/05 02:03:59;;;;;;;7.83;1.83;;;7.50;99.90;;;;;;5057982;28;20450;-81
2024/01/05 02:06:25;;;;;;;6.10;2.50;;;7.50;99.90;;;;;;5061588;28;20479;-81
2024/01/05 02:08:52;;;;;;;6.33;1.87;;;7.50;99.90;;;;;;5057315;28;20505;-81
2024/01/05 02:11:19;;;;;;;6.10;2.47;;;7.40;99.90;;;;;;5059286;28;20519;-81
2024/01/05 02:13:48;;;;;;;8.60;2.60;;;7.40;99.90;;;;;;5059499;28;20488;-81
2024/01/05 02:16:15;;;;;;;5.80;2.40;;;7.40;99.90;;;;;;5059859;28;20488;-81
2024/01/05 02:18:50;;;;;;;7.77;2.40;;;7.30;99.90;;;;;;5052238;28;20520;-81
2024/01/05 02:21:17;;;;;;;6.23;3.00;;;7.30;99.90;;;;;;5059758;28;20506;-81
2024/01/05 02:23:45;;;;;;;7.53;2.30;;;7.20;99.90;;;;;;5061617;28;20515;-81
2024/01/05 02:26:12;;;;;;;11.70;2.17;;;7.20;99.90;;;;;;5058971;28;20967;-81
2024/01/05 02:28:41;;;;;;;7.10;2.43;;;7.20;99.90;;;;;;5061617;28;20508;-81
2024/01/05 02:31:07;;;;;;;5.13;1.80;;;7.20;99.90;;;;;;5058578;28;20452;-81
2024/01/05 02:33:34;;;;;;;7.63;1.87;;;7.10;99.90;;;;;;5063473;28;20496;-82
2024/01/05 02:36:01;;;;;;;5.93;1.57;;;7.10;99.90;;;;;;5058303;28;20521;-81
2024/01/05 02:38:28;;;;;;;5.37;3.03;;;7.10;99.90;;;;;;5064586;28;20583;-81
2024/01/05 02:40:57;;;;;;;4.93;1.80;;;7.10;99.90;;;;;;5057572;28;20487;-81
2024/01/05 02:43:24;;;;;;;9.00;2.33;;;7.10;99.90;;;;;;5063181;28;20486;-81
2024/01/05 02:45:51;;;;;;;10.40;2.43;;;7.10;99.90;;;;;;5058175;28;20518;-81
2024/01/05 02:48:18;;;;;;;6.90;1.97;;;7.00;99.90;;;;;;5063621;28;20992;-81
2024/01/05 02:50:45;;;;;;;6.13;1.57;;;7.00;99.90;;;;;;5064137;28;20544;-81
2024/01/05 02:53:14;;;;;;;8.60;2.23;;;7.00;99.90;;;;;;5064359;28;20476;-81
2024/01/05 02:55:41;;;;;;;7.37;2.07;;;7.00;99.90;;;;;;5064014;28;20539;-82
2024/01/05 02:58:09;;;;;;;7.83;2.00;;;6.90;99.90;;;;;;5063912;28;20523;-81
2024/01/05 03:00:36;;;;;;;5.30;2.40;;;6.90;99.90;;;;;;5064432;28;20559;-81
2024/01/05 03:03:06;;;;;;;5.37;1.70;;;6.90;99.90;;;;;;5064730;28;20554;-81
2024/01/05 03:05:32;;;;;;;6.27;2.10;;;6.80;99.90;;;;;;5065206;28;20490;-81
2024/01/05 03:07:59;;;;;;;4.90;2.03;;;6.90;99.90;;;;;;5064231;28;20476;-81
2024/01/05 03:10:26;;;;;;;5.50;1.73;;;6.90;99.90;;;;;;5064316;28;20460;-82
2024/01/05 03:12:53;;;;;;;9.13;1.67;;;6.80;99.90;;;;;;5064470;28;20568;-81
2024/01/05 03:15:21;;;;;;;4.40;2.27;;;6.80;99.90;;;;;;5065228;28;20482;-81
2024/01/05 03:17:48;;;;;;;9.60;2.23;;;6.80;99.90;;;;;;5065054;28;20523;-81
2024/01/05 03:20:17;;;;;;;5.23;1.50;;;6.70;99.90;;;;;;5064764;28;20456;-82
2024/01/05 03:22:44;;;;;;;5.73;1.87;;;6.70;99.90;;;;;;5064731;28;20481;-82
2024/01/05 03:25:11;;;;;;;10.90;1.67;;;6.70;99.90;;;;;;5064915;28;20479;-81
2024/01/05 03:27:37;;;;;;;6.90;2.03;;;6.70;99.90;;;;;;5064601;28;20483;-81
2024/01/05 03:30:05;;;;;;;6.77;1.90;;;6.70;99.90;;;;;;5064780;28;20510;-81
2024/01/05 03:32:33;;;;;;;7.67;3.07;;;6.60;99.90;;;;;;5064810;28;20532;-81
2024/01/05 03:35:00;;;;;;;6.40;1.60;;;6.60;99.90;;;;;;5065249;28;20523;-81
2024/01/05 03:37:27;;;;;;;6.17;2.20;;;6.60;99.90;;;;;;5065537;28;20716;-81
2024/01/05 03:39:54;;;;;;;7.63;3.00;;;6.60;99.90;;;;;;5065438;28;20499;-81
2024/01/05 03:42:21;;;;;;;12.70;2.70;;;6.50;99.90;;;;;;5064617;28;20555;-81
2024/01/05 03:44:47;;;;;;;5.57;1.60;;;6.50;99.90;;;;;;5065678;28;20512;-81
2024/01/05 03:47:14;;;;;;;8.60;2.10;;;6.50;99.90;;;;;;5064947;28;20491;-81
2024/01/05 03:49:42;;;;;;;6.03;2.47;;;6.50;99.90;;;;;;5064461;28;20517;-81
2024/01/05 03:52:10;;;;;;;5.47;2.53;;;6.50;99.90;;;;;;5064692;28;20536;-81
2024/01/05 03:54:37;;;;;;;5.93;1.67;;;6.40;99.90;;;;;;5067376;28;20463;-82
2024/01/05 03:57:04;;;;;;;6.70;1.93;;;6.40;99.90;;;;;;5069499;28;20543;-81
2024/01/05 03:59:31;;;;;;;5.93;2.17;;;6.40;99.90;;;;;;5068537;28;20459;-79
2024/01/05 04:01:57;;;;;;;3.80;2.23;;;6.40;99.90;;;;;;5068130;28;20532;-82
2024/01/05 04:04:24;;;;;;;6.80;1.70;;;6.40;99.90;;;;;;5068659;28;20559;-82
2024/01/05 04:06:53;;;;;;;6.37;1.50;;;6.40;99.90;;;;;;5068010;28;20456;-81
2024/01/05 04:09:19;;;;;;;10.37;2.00;;;6.30;99.90;;;;;;5067028;28;20514;-81
2024/01/05 04:11:46;;;;;;;6.33;1.93;;;6.40;99.90;;;;;;5066431;28;20533;-81
2024/01/05 04:14:13;;;;;;;4.63;1.80;;;6.40;99.90;;;;;;5066695;28;20544;-81
2024/01/05 04:16:40;;;;;;;5.30;1.67;;;6.40;99.90;;;;;;5066598;28;20456;-82
2024/01/05 04:19:08;;;;;;;6.60;2.00;;;6.40;99.90;;;;;;5066135;28;20515;-82
2024/01/05 04:21:35;;;;;;;8.03;2.43;;;6.40;99.90;;;;;;5065755;28;20545;-82
2024/01/05 04:24:03;;;;;;;7.07;3.20;;;6.40;99.90;;;;;;5065284;28;20475;-82
2024/01/05 04:26:30;;;;;;;10.50;2.43;;;6.50;99.90;;;;;;5065676;28;20520;-82
2024/01/05 04:28:57;;;;;;;11.17;2.80;;;6.50;99.90;;;;;;5064140;28;20448;-82
2024/01/05 04:31:23;;;;;;;5.83;2.03;;;6.60;99.90;;;;;;5064951;28;20483;-82
2024/01/05 04:33:50;;;;;;;5.67;2.50;;;6.80;99.90;;;;;;5062880;28;20476;-82
2024/01/05 04:36:18;;;;;;;4.47;1.90;;;6.80;99.90;;;;;;5062022;28;20492;-82
2024/01/05 04:38:46;;;;;;;7.67;2.00;;;7.00;99.90;;;;;;5063073;28;20502;-82
2024/01/05 04:41:16;;;;;;;6.23;2.30;;;7.10;99.90;;;;;;5062456;28;21000;-82
2024/01/05 04:43:44;;;;;;;8.13;2.63;;;7.20;99.90;;;;;;5062120;28;20508;-82
2024/01/05 04:46:11;;;;;;;13.20;2.33;;;7.30;99.90;;;;;;5062304;28;20896;-82
2024/01/05 04:48:38;;;;;;;11.23;2.83;;;7.30;99.90;;;;;;5061840;28;20456;-82
2024/01/05 04:51:07;;;;;;;5.17;2.47;;;7.50;99.90;;;;;;5061593;28;20829;-82
2024/01/05 04:53:34;;;;;;;12.73;2.37;;;7.50;99.90;;;;;;5073705;28;20478;-80
2024/01/05 04:56:01;;;;;;;9.03;2.50;;;7.50;99.90;;;;;;5063841;28;20459;-80
2024/01/05 04:58:29;;;;;;;9.57;2.93;;;7.50;99.90;;;;;;5074007;28;21052;-81
2024/01/05 05:00:56;;;;;;;6.33;2.23;;;7.60;99.90;;;;;;5068703;28;20513;-81
2024/01/05 05:03:27;;;;;;;8.37;2.67;;;7.70;99.90;;;;;;5068528;28;20467;-81
2024/01/05 05:05:53;;;;;;;6.53;3.00;;;7.70;99.90;;;;;;5063898;28;20953;-82
2024/01/05 05:08:20;;;;;;;3.30;2.40;;;7.70;99.90;;;;;;5061842;28;20495;-80
2024/01/05 05:10:47;;;;;;;5.00;2.20;;;7.80;99.90;;;;;;5068955;28;20529;-78
2024/01/05 05:13:14;;;;;;;5.63;1.73;;;7.80;99.90;;;;;;5070375;28;20502;-79
2024/01/05 05:15:42;;;;;;;4.93;2.23;;;7.80;99.90;;;;;;5065265;28;20464;-79
2024/01/05 05:18:09;;;;;;;6.47;2.37;;;7.80;99.90;;;;;;5063262;28;20480;-79
2024/01/05 05:20:36;;;;;;;7.80;1.90;;;7.90;99.90;;;;;;5063064;28;20543;-79
2024/01/05 05:23:03;;;;;;;6.13;2.23;;;7.90;99.90;;;;;;5063206;28;20567;-79
2024/01/05 05:25:30;;;;;;;6.40;2.53;;;7.90;99.90;;;;;;5062899;28;20528;-79
2024/01/05 05:27:57;;;;;;;4.83;1.73;;;7.90;99.90;;;;;;5060571;28;20510;-79
2024/01/05 05:30:23;;;;;;;3.47;1.53;;;7.90;99.90;;;;;;5060457;28;20458;-80
2024/01/05 05:32:52;;;;;;;5.70;2.20;;;7.90;99.90;;;;;;5060477;28;20516;-80
2024/01/05 05:35:19;;;;;;;13.27;2.37;;;7.90;99.90;;;;;;5060703;28;20452;-79
2024/01/05 05:37:45;;;;;;;2.70;1.50;;;9.40;99.90;;;;;;5060763;28;20893;-80
2024/01/05 05:40:13;;;;;;;5.73;2.00;;;8.10;99.90;;;;;;5060882;28;20542;-80
2024/01/05 05:42:40;;;;;;;5.40;2.00;;;8.10;99.90;;;;;;5060408;28;20473;-81
2024/01/05 05:45:07;;;;;;;7.60;2.80;;;8.10;99.90;;;;;;5060688;28;20482;-82
2024/01/05 05:47:34;;;;;;;4.87;1.63;;;8.10;99.90;;;;;;5059966;28;20492;-80
2024/01/05 05:50:05;;;;;;;6.40;2.10;;;8.10;99.90;;;;;;5060494;28;20543;-80
2024/01/05 05:52:32;;;;;;;4.50;2.30;;;8.10;99.90;;;;;;5057530;28;20489;-81
2024/01/05 05:54:59;;;;;;;12.37;2.30;;;8.10;99.90;;;;;;5060918;28;20542;-80
2024/01/05 05:57:26;;;;;;;4.00;1.90;;;8.10;99.90;;;;;;5061450;28;20600;-81
2024/01/05 05:59:53;;;;;;;9.23;2.07;;;8.10;99.90;;;;;;5061481;28;20500;-80
2024/01/05 06:02:20;;;;;;;9.47;1.73;;;8.10;99.90;;;;;;5061300;28;20572;-80
2024/01/05 06:04:47;;;;;;;5.93;1.97;;;8.20;99.90;;;;;;5060752;28;20452;-81
2024/01/05 06:07:15;;;;;;;5.53;1.50;;;8.10;99.90;;;;;;5061595;28;20453;-80
2024/01/05 06:09:42;;;;;;;5.43;1.93;;;8.00;99.90;;;;;;5049249;28;20453;-80
2024/01/05 06:12:09;;;;;;;5.30;1.87;;;7.90;99.90;;;;;;5051202;28;20555;-80
2024/01/05 06:14:38;;;;;;;5.80;1.80;;;7.80;99.90;;;;;;5056140;28;20464;-80
2024/01/05 06:17:05;;;;;;;7.53;2.40;;;7.70;99.90;;;;;;5050746;28;20456;-81
2024/01/05 06:19:31;;;;;;;5.00;1.60;;;7.50;99.90;;;;;;5048940;28;20527;-79
2024/01/05 06:21:59;;;;;;;4.17;1.70;;;7.40;99.90;;;;;;5056251;28;20581;-81
2024/01/05 06:24:28;;;;;;;6.67;1.63;;;7.40;99.90;;;;;;5053519;28;20803;-80
2024/01/05 06:26:55;;;;;;;5.37;1.33;;;7.30;99.90;;;;;;5053163;28;20456;-81
2024/01/05 06:29:23;;;;;;;5.10;2.10;;;7.30;99.90;;;;;;5053442;28;20443;-80
2024/01/05 06:31:52;;;;;;;6.63;1.80;;;7.20;99.90;;;;;;5053309;28;20514;-79
2024/01/05 06:34:19;;;;;;;3.93;1.63;;;7.10;99.90;;;;;;5054232;28;20513;-81
2024/01/05 06:36:46;;;;;;;5.57;1.67;;;7.20;99.90;;;;;;5054047;28;20451;-80
2024/01/05 06:39:13;;;;;;;5.00;1.60;;;7.50;99.90;;;;;;5056073;28;20536;-81
2024/01/05 06:41:41;;;;;;;5.13;2.07;;;7.10;99.90;;;;;;5053688;28;20483;-81
2024/01/05 06:44:08;;;;;;;4.03;1.80;;;7.10;99.90;;;;;;5054060;28;20477;-80
2024/01/05 06:46:35;;;;;;;6.00;1.77;;;7.20;99.90;;;;;;5057182;28;20444;-80
2024/01/05 06:49:03;;;;;;;5.40;1.67;;;7.20;99.90;;;;;;5053034;28;20464;-80
2024/01/05 06:51:37;;;;;;;4.70;1.50;;;7.20;99.90;;;;;;5057423;28;20511;-80
2024/01/05 06:54:04;;;;;;;6.03;2.23;;;7.20;99.90;;;;;;5053954;28;20456;-81
2024/01/05 06:56:32;;;;;;;6.03;2.20;;;7.30;99.90;;;;;;5056817;28;20894;-80
2024/01/05 06:59:01;;;;;;;2.63;1.47;;;7.30;99.90;;;;;;5053293;28;20492;-80
2024/01/05 07:01:27;;;;;;;4.10;1.50;;;7.30;99.90;;;;;;5054257;28;20472;-80
2024/01/05 07:03:56;;;;;;;5.17;1.50;;;7.40;99.90;;;;;;5054068;28;20486;-80
2024/01/05 07:06:23;;;;;;;3.33;1.47;;;7.30;99.90;;;;;;5054244;28;20507;-80
2024/01/05 07:08:50;;;;;;;3.50;1.90;;;7.20;99.90;;;;;;5058409;28;20481;-81
2024/01/05 07:11:21;;;;;;;5.30;2.53;;;7.30;99.90;;;;;;5049850;28;20453;-81
2024/01/05 07:13:48;;;;;;;7.57;1.80;;;7.40;99.90;;;;;;5052474;28;20453;-81
2024/01/05 07:16:19;;;;;;;5.47;1.63;;;7.60;99.90;;;;;;5058598;28;20479;-81
2024/01/05 07:18:47;;;;;;;5.63;1.53;;;7.70;99.90;;;;;;5058359;28;20494;-80
2024/01/05 07:21:14;;;;;;;4.93;1.50;;;7.90;99.90;;;;;;5057294;28;20456;-80
2024/01/05 07:23:40;;;;;;;8.13;1.80;;;8.00;99.90;;;;;;5062239;28;20525;-80
2024/01/05 07:26:08;;;;;;;7.20;1.90;;;8.10;99.90;;;;;;5060748;28;20496;-81
2024/01/05 07:28:35;;;;;;;5.47;1.40;;;8.20;99.90;;;;;;5053022;28;20507;-80
2024/01/05 07:31:05;;;;;;;3.87;1.37;;;8.20;99.90;;;;;;5054414;28;20521;-80
2024/01/05 07:33:33;;;;;;;5.13;1.43;;;8.30;99.90;;;;;;5059430;28;20457;-80
2024/01/05 07:36:04;;;;;;;6.00;1.70;;;8.40;99.90;;;;;;5061716;28;20458;-81
2024/01/05 07:38:34;;;;;;;4.27;1.40;;;8.50;99.90;;;;;;5057470;28;20496;-79
2024/01/05 07:41:01;;;;;;;5.73;1.90;;;8.50;99.90;;;;;;5055906;28;20462;-81
2024/01/05 07:43:28;;;;;;;4.80;1.17;;;8.60;99.90;;;;;;5060130;28;20980;-80
2024/01/05 07:45:55;;;;;;;8.30;1.30;;;8.60;99.90;;;;;;5059672;28;20490;-80
2024/01/05 07:48:22;;;;;;;4.03;1.77;;;8.60;99.90;;;;;;5059293;28;20463;-80
2024/01/05 07:50:50;;;;;;;4.33;1.67;;;8.60;99.90;;;;;;5052291;28;20467;-80
2024/01/05 07:53:17;;;;;;;3.50;1.20;;;8.70;99.90;;;;;;5056279;28;20558;-80
2024/01/05 07:55:44;;;;;;;2.80;1.27;;;8.70;99.90;;;;;;5055220;28;20483;-80
2024/01/05 07:58:11;;;;;;;4.03;1.80;;;8.70;99.90;;;;;;5051781;28;20465;-80
2024/01/05 08:00:38;;;;;;;2.27;1.20;;;8.80;99.90;;;;;;5058105;28;20489;-80
2024/01/05 08:03:06;;;;;;;3.10;1.03;;;8.80;99.90;;;;;;5053994;28;20485;-81
2024/01/05 08:05:33;;;;;;;8.97;1.60;;;8.80;99.90;;;;;;5051757;28;20468;-81
2024/01/05 08:08:01;;;;;;;4.47;1.63;;;8.90;99.90;;;;;;5049572;28;20538;-80
2024/01/05 08:10:29;;;;;;;6.33;2.03;;;8.90;99.90;;;;;;5057939;28;20446;-80
2024/01/05 08:12:56;;;;;;;3.83;1.73;;;8.90;99.90;;;;;;5056625;28;20489;-80
2024/01/05 08:15:24;;;;;;;2.83;1.33;;;9.00;99.90;;;;;;5058536;28;20476;-80
2024/01/05 08:17:51;;;;;;;3.90;1.37;;;9.00;99.90;;;;;;5057176;28;20459;-80
2024/01/05 08:20:18;;;;;;;3.23;1.60;;;9.00;99.90;;;;;;5053235;28;20490;-80
2024/01/05 08:22:44;;;;;;;4.07;1.27;;;9.10;99.90;;;;;;5050578;28;20924;-80
2024/01/05 08:25:14;;;;;;;2.67;1.10;;;9.10;99.90;;;;;;5064111;28;20521;-79
2024/01/05 08:27:40;;;;;;;5.43;1.40;;;9.10;99.90;;;;;;5066664;28;20483;-81
2024/01/05 08:30:11;;;;;;;6.80;1.60;;;9.10;99.90;;;;;;5054739;28;20529;-80
2024/01/05 08:32:38;;;;;;;4.33;1.37;;;9.10;99.90;;;;;;5059898;28;20515;-80
2024/01/05 08:35:06;;;;;;;3.70;1.50;;;9.20;99.90;;;;;;5056922;28;20478;-80
2024/01/05 08:37:33;;;;;;;2.80;1.50;;;9.20;99.90;;;;;;5062798;28;20454;-80
2024/01/05 08:40:00;;;;;;;5.83;1.73;;;9.20;99.90;;;;;;5062723;28;20558;-79
2024/01/05 08:42:28;;;;;;;7.80;1.60;;;9.20;99.90;;;;;;5051132;28;20518;-80
2024/01/05 08:44:55;;;;;;;2.30;1.10;;;9.20;99.90;;;;;;5059886;28;20464;-80
2024/01/05 08:47:21;;;;;;;6.40;1.60;;;9.30;99.90;;;;;;5064912;28;20540;-80
2024/01/05 08:49:48;;;;;;;6.00;1.50;;;9.30;99.90;;;;;;5060887;28;20549;-80
2024/01/05 08:52:15;;;;;;;2.37;1.20;;;9.30;99.90;;;;;;5062687;28;20496;-80
2024/01/05 08:54:42;;;;;;;2.33;1.20;;;9.40;99.90;;;;;;5061947;28;20518;-80
2024/01/05 08:57:11;;;;;;;5.70;1.33;;;9.30;99.90;;;;;;5055794;28;20541;-80
2024/01/05 08:59:40;;;;;;;3.67;1.30;;;9.40;99.90;;;;;;5062264;28;20503;-79
2024/01/05 09:02:07;;;;;;;4.10;1.10;;;9.40;99.90;;;;;;5057469;28;20543;-84
2024/01/05 09:04:36;;;;;;;2.70;1.40;;;9.40;99.90;;;;;;5060281;28;20489;-81
2024/01/05 09:07:04;;;;;;;2.13;0.90;;;9.40;99.90;;;;;;5061587;28;20477;-80
2024/01/05 09:09:31;;;;;;;2.23;1.07;;;9.40;99.90;;;;;;5056673;28;20495;-79
2024/01/05 09:11:58;;;;;;;4.03;1.10;;;9.40;99.90;;;;;;5054549;28;20542;-79
2024/01/05 09:14:24;;;;;;;2.10;1.00;;;9.40;99.90;;;;;;5061242;28;20459;-81
2024/01/05 09:16:53;;;;;;;2.23;1.10;;;9.40;99.90;;;;;;5056636;28;20502;-80
2024/01/05 09:19:20;;;;;;;8.97;1.37;;;9.40;99.90;;;;;;5053189;28;20495;-81
2024/01/05 09:21:47;;;;;;;2.00;1.00;;;9.40;99.90;;;;;;5063604;28;20480;-80
2024/01/05 09:24:13;;;;;;;1.97;0.93;;;9.40;99.90;;;;;;5062330;28;20465;-80
2024/01/05 09:26:41;;;;;;;3.30;1.07;;;9.40;99.90;;;;;;5063665;28;20463;-81
2024/01/05 09:29:08;;;;;;;2.80;1.00;;;9.40;99.90;;;;;;5055426;28;20451;-80
2024/01/05 09:31:35;;;;;;;2.47;1.20;;;9.40;99.90;;;;;;5058615;28;20497;-80
2024/01/05 09:34:03;;;;;;;2.17;0.90;;;9.50;99.90;;;;;;5060342;28;20487;-79
2024/01/05 09:36:30;;;;;;;2.27;0.80;;;9.40;99.90;;;;;;5053487;28;20478;-80
2024/01/05 09:38:57;;;;;;;1.50;0.80;;;9.50;99.90;;;;;;5055150;28;20475;-81
2024/01/05 09:41:24;;;;;;;1.90;0.90;;;9.40;99.90;;;;;;5047973;28;20514;-80
2024/01/05 09:43:52;;;;;;;2.27;0.70;;;9.30;99.90;;;;;;5055284;28;20520;-80
2024/01/05 09:46:20;;;;;;;1.93;0.70;;;9.30;99.90;;;;;;5062118;28;20546;-80
2024/01/05 09:48:47;;;;;;;1.40;0.60;;;9.30;99.90;;;;;;5054746;28;20474;-79
2024/01/05 09:51:16;;;;;;;1.87;0.60;;;9.30;99.90;;;;;;5032190;28;20461;-80
2024/01/05 09:53:44;;;;;;;2.23;0.77;;;9.20;99.90;;;;;;5058666;28;20482;-80
2024/01/05 09:56:11;;;;;;;3.17;0.80;;;9.20;99.90;;;;;;5051543;28;20956;-81
2024/01/05 09:58:39;;;;;;;1.70;0.80;;;9.20;99.90;;;;;;5045315;28;20490;-80
2024/01/05 10:01:12;;;;;;;2.13;0.60;;;9.30;99.90;;;;;;5034968;28;20517;-80
2024/01/05 10:03:39;;;;;;;2.00;0.70;;;9.40;99.90;;;;;;5056548;28;20538;-79
2024/01/05 10:06:06;;;;;;;4.10;0.70;;;9.50;99.90;;;;;;5052035;28;20547;-79
2024/01/05 10:08:34;;;;;;;2.43;0.70;;;9.50;99.90;;;;;;5046468;28;20987;-78
2024/01/05 10:11:02;;;;;;;2.07;0.70;;;9.50;99.90;;;;;;5049524;28;20488;-79
2024/01/05 10:13:29;;;;;;;1.87;0.70;;;9.40;99.90;;;;;;5050350;28;20463;-79
2024/01/05 10:15:59;;;;;;;1.60;0.70;;;9.40;99.90;;;;;;5051128;28;20534;-79
2024/01/05 10:18:29;;;;;;;1.87;0.80;;;9.40;99.90;;;;;;5050956;28;20487;-78
2024/01/05 10:20:57;;;;;;;1.40;0.67;;;9.50;99.90;;;;;;5049631;28;20479;-80
2024/01/05 10:23:24;;;;;;;1.33;0.63;;;9.50;99.90;;;;;;5050864;28;20548;-79
2024/01/05 10:25:52;;;;;;;1.73;0.70;;;9.50;99.90;;;;;;5051300;28;20891;-80
2024/01/05 10:28:25;;;;;;;1.50;0.80;;;9.60;99.90;;;;;;5045555;28;20456;-79
2024/01/05 10:30:53;;;;;;;2.23;0.70;;;9.50;99.90;;;;;;5053174;28;20479;-80
2024/01/05 10:33:20;;;;;;;1.70;0.80;;;9.40;99.90;;;;;;5059315;28;20478;-80
2024/01/05 10:35:47;;;;;;;1.70;0.63;;;9.40;99.90;;;;;;5055137;28;20494;-80
2024/01/05 10:38:14;;;;;;;1.43;0.70;;;9.50;99.90;;;;;;5046510;28;20485;-81
2024/01/05 10:40:41;;;;;;;1.70;0.70;;;9.50;99.90;;;;;;5052206;28;20505;-80
2024/01/05 10:43:14;;;;;;;1.40;0.60;;;9.50;99.90;;;;;;5057830;28;20872;-80
2024/01/05 10:45:46;;;;;;;2.60;0.60;;;9.30;99.90;;;;;;5053830;28;20526;-80
2024/01/05 10:48:15;;;;;;;4.20;0.70;;;9.40;99.90;;;;;;5043401;28;20487;-80
2024/01/05 10:50:43;;;;;;;1.73;0.73;;;9.40;99.90;;;;;;5050359;28;20454;-80
2024/01/05 10:53:10;;;;;;;2.10;0.70;;;9.40;99.90;;;;;;5058533;28;20539;-80
2024/01/05 10:55:38;;;;;;;1.40;0.60;;;9.40;99.90;;;;;;5058570;28;20509;-80
2024/01/05 10:58:07;;;;;;;1.57;0.60;;;9.50;99.90;;;;;;5052897;28;20467;-80
2024/01/05 11:00:35;;;;;;;3.50;0.60;;;9.50;99.90;;;;;;5046432;28;20501;-79
2024/01/05 11:03:14;;;;;;;2.40;0.70;;;9.60;99.90;;;;;;5056956;28;20512;-80
2024/01/05 11:05:42;;;;;;;1.50;0.63;;;9.60;99.90;;;;;;5048880;28;20487;-80
2024/01/05 11:08:19;;;;;;;2.90;1.00;;;9.50;99.90;;;;;;5051119;28;20492;-80
2024/01/05 11:10:58;;;;;;;2.03;0.90;;;9.50;99.90;;;;;;5049336;28;20474;-80
2024/01/05 11:13:40;;;;;;;1.60;0.80;;;9.40;99.90;;;;;;5054553;28;20497;-81
2024/01/05 11:16:33;;;;;;;2.07;0.80;;;9.40;99.90;;;;;;5057940;28;20458;-80
2024/01/05 11:19:27;;;;;;;1.93;0.87;;;9.20;99.90;;;;;;5050627;28;20469;-79
2024/01/05 11:21:58;;;;;;;3.10;0.87;;;9.20;99.90;;;;;;5052546;28;20463;-79
2024/01/05 11:24:26;;;;;;;1.57;0.90;;;9.30;99.90;;;;;;5050082;28;20450;-80
2024/01/05 11:26:55;;;;;;;3.13;0.87;;;9.40;99.90;;;;;;5043209;28;20913;-79
2024/01/05 11:29:48;;;;;;;1.80;0.60;;;9.40;99.90;;;;;;5042390;28;20451;-79
2024/01/05 11:32:35;;;;;;;2.43;0.80;;;9.40;99.90;;;;;;5048040;28;20566;-78
2024/01/05 11:35:04;;;;;;;2.10;0.70;;;9.50;99.90;;;;;;5052320;28;20549;-77
2024/01/05 11:37:32;;;;;;;1.90;0.93;;;9.50;99.90;;;;;;5044612;28;20483;-79
2024/01/05 11:40:00;;;;;;;2.17;0.80;;;9.50;99.90;;;;;;5044275;28;20480;-80
2024/01/05 11:42:31;;;;;;;3.43;0.83;;;9.40;99.90;;;;;;5045671;28;20904;-79
2024/01/05 11:45:00;;;;;;;2.87;1.10;;;9.40;99.90;;;;;;5047886;28;20460;-79
2024/01/05 11:47:42;;;;;;;2.23;0.90;;;9.30;99.90;;;;;;5048363;28;20452;-79
2024/01/05 11:50:28;;;;;;;3.57;0.80;;;9.30;99.90;;;;;;5051053;28;20513;-78
2024/01/05 11:53:13;;;;;;;6.00;0.70;;;9.40;99.90;;;;;;5055517;28;20505;-77
2024/01/05 11:55:47;;;;;;;2.40;1.00;;;9.30;99.90;;;;;;5058776;28;20481;-79
2024/01/05 11:58:17;;;;;;;2.03;0.93;;;9.30;99.90;;;;;;5047150;28;20458;-79
2024/01/05 12:00:47;;;;;;;2.13;0.70;;;9.30;99.90;;;;;;5045917;28;20487;-78
2024/01/05 12:03:20;;;;;;;2.13;0.80;;;9.40;99.90;;;;;;5048030;28;20479;-79
2024/01/05 12:05:48;;;;;;;3.50;1.30;;;9.40;99.90;;;;;;5043275;28;20463;-79
2024/01/05 12:08:15;;;;;;;2.33;0.80;;;9.60;99.90;;;;;;5044095;28;20462;-81
2024/01/05 12:10:42;;;;;;;2.50;1.67;;;9.60;99.90;;;;;;5052358;28;20543;-79
2024/01/05 12:13:09;;;;;;;1.80;0.90;;;9.80;99.90;;;;;;5048690;28;20482;-80
2024/01/05 12:15:36;;;;;;;3.60;0.80;;;9.70;99.90;;;;;;5048094;28;20554;-80
2024/01/05 12:18:05;;;;;;;3.00;1.20;;;9.70;99.90;;;;;;5053059;28;20452;-80
2024/01/05 12:20:33;;;;;;;1.80;0.80;;;9.60;99.90;;;;;;5060661;28;20489;-78
2024/01/05 12:23:00;;;;;;;2.73;0.80;;;9.50;99.90;;;;;;5048796;28;20470;-80
2024/01/05 12:25:27;;;;;;;1.83;0.93;;;9.60;99.90;;;;;;5050299;28;20900;-79
2024/01/05 12:27:54;;;;;;;2.87;0.77;;;9.60;99.90;;;;;;5048775;28;20548;-79
2024/01/05 12:30:22;;;;;;;1.47;0.70;;;9.60;99.90;;;;;;5049967;28;21042;-80
2024/01/05 12:32:49;;;;;;;4.00;0.97;;;9.50;99.90;;;;;;5053788;28;20486;-80
2024/01/05 12:35:17;;;;;;;3.50;1.23;;;9.30;99.90;;;;;;5055155;28;20459;-79
2024/01/05 12:37:52;;;;;;;2.67;0.93;;;9.10;99.90;;;;;;5051713;28;20463;-79
2024/01/05 12:40:24;;;;;;;1.40;0.70;;;8.90;99.90;;;;;;5058614;28;20856;-79
2024/01/05 12:42:52;;;;;;;3.93;1.20;;;8.80;99.90;;;;;;5049905;28;20461;-79
2024/01/05 12:45:22;;;;;;;8.77;1.00;;;8.70;99.90;;;;;;5050723;28;20458;-80
2024/01/05 12:47:49;;;;;;;5.63;1.20;;;8.70;99.90;;;;;;5051321;28;20463;-79
2024/01/05 12:50:26;;;;;;;3.80;0.90;;;8.70;99.90;;;;;;5047981;28;21080;-80
2024/01/05 12:52:55;;;;;;;1.60;0.80;;;8.80;99.90;;;;;;5044710;28;21010;-79
2024/01/05 12:55:29;;;;;;;2.50;0.90;;;8.90;99.90;;;;;;5051032;28;20472;-79
2024/01/05 12:58:01;;;;;;;3.83;0.80;;;8.90;99.90;;;;;;5056108;28;20450;-77
2024/01/05 13:00:28;;;;;;;5.83;1.20;;;8.90;99.90;;;;;;5053511;28;20865;-78